HBD weather

Pemex Southern Region Administrative Technical Center Helipad
Villahermosa, Tabasco, Mexico

Public forecast

Using degrees Celsius for public forecast. Weather courtesy of forecast.io.

Closest aviation weather report (METAR) to Pemex Southern Region Administrative Technical Center Helipad

Report is more than 6 hours old.

Closest report is Carlos Rovirosa Pérez International Airport, 7.9 nm (14.6 km) E. Retrieved 2019/12/16 02:47 UTC (7 hours ago):

MMVA 160247Z 07008KT 7SM SKC 24/24 A2990 RMK SLP122 52013 961

Closest aviation forecast (TAF) to Pemex Southern Region Administrative Technical Center Helipad

Closest forecast is Carlos Rovirosa Pérez International Airport, 7.9 nm (14.6 km) E. Retrieved 2019/12/16 06:55 UTC (3 hours ago):

TAF MMVA 160452Z 1606/1706 10005KT P6SM SKC TEMPO 1611/1615 3SM BR HZ BKN012 FM161800 12012KT P6SM SCT015 SCT080 FM170500 09007KT P6SM SKC